Airfield :







YOU CAN JOIN US ON...

 
LOGIN :

Register | Disclaimer

   EN    FR    IT 

 









Legend :    VFR   Marginal VFR   IFR   Intensive IFR   Very Intensive IFR
Visi :
Ceiling :
>= 8 km
>= 3000ft
5 to 8 km
1000 to 3000 ft
1500m to 5 km
500 to 1000 ft
800 to 1500m
200 to 500 ft
< 800m
< 200 ft
Symbols :   Thunderstorms  Fog  Heavy snow  Heavy precipitations  Wind > 20 kt







- Airport Elevation : 271 ft


KBAF - Barnes Municipal

CURRENT METAR :
  • 201753Z 08003KT 10SM CLR 25/09 A3014 RMK AO2 SLP207 T02500089 10250 20056 57029

EXPIRED METARs :
  • 201653Z 00000KT 10SM CLR 23/10 A3017 RMK AO2 SLP218 T02330100
  • 201553Z VRB04KT 10SM CLR 21/10 A3020 RMK AO2 SLP228 T02060100
  • 201453Z 00000KT 10SM CLR 17/09 A3023 RMK AO2 SLP238 T01720089 58006

TAF KBAF
Valid from the 20 at 18:00 until the 21 at 18:00 UTC


201735Z 2018/2118 30005KT P6SM SKC
FM210000 00000KT P6SM FEW250
TEMPO 2108/2112 1SM BR SCT003
FM211700 19005KT P6SM SKC
No reported NOTAMs for that airfield.



MET'MAP, your aeronautical weather chart ! - Copyright ORBIFLY December 2007 - Disclaimer

ORBIFLY MET'MAP TEAM :

Programming & Development : Alexandra Zaïnal
Concept & Development : Baudouin d'Aumeries
Co-Development & Prog : Marc-Olivier Méhu
Technical & hardware support : Manuel Goepfert

Contact : metmap@orbifly.com




SOURCES & CREDITS :

   NOAA